sensor_id;sensor_type;location;lat;lon;timestamp;temperature;humidity
3246;DHT22;1635;48.000;10.582;2022-11-20T00:02:19;4.80;99.90
3246;DHT22;1635;48.000;10.582;2022-11-20T00:08:18;4.80;99.90
3246;DHT22;1635;48.000;10.582;2022-11-20T00:10:46;4.80;99.90
3246;DHT22;1635;48.000;10.582;2022-11-20T00:13:14;4.80;99.90
3246;DHT22;1635;48.000;10.582;2022-11-20T00:15:46;4.80;99.90
3246;DHT22;1635;48.000;10.582;2022-11-20T00:18:13;4.80;99.90
3246;DHT22;1635;48.000;10.582;2022-11-20T00:20:41;4.80;99.90
3246;DHT22;1635;48.000;10.582;2022-11-20T00:23:09;4.80;99.90
3246;DHT22;1635;48.000;10.582;2022-11-20T00:25:37;4.90;99.90
3246;DHT22;1635;48.000;10.582;2022-11-20T00:28:05;4.80;99.90
3246;DHT22;1635;48.000;10.582;2022-11-20T00:30:32;4.80;99.90
3246;DHT22;1635;48.000;10.582;2022-11-20T00:33:00;4.80;99.90
3246;DHT22;1635;48.000;10.582;2022-11-20T00:35:29;4.80;99.90
3246;DHT22;1635;48.000;10.582;2022-11-20T00:38:02;4.80;99.90
3246;DHT22;1635;48.000;10.582;2022-11-20T00:40:29;4.80;99.90
3246;DHT22;1635;48.000;10.582;2022-11-20T00:43:15;4.80;99.90
3246;DHT22;1635;48.000;10.582;2022-11-20T00:45:43;4.80;99.90
3246;DHT22;1635;48.000;10.582;2022-11-20T00:48:11;4.80;99.90
3246;DHT22;1635;48.000;10.582;2022-11-20T00:51:12;4.80;99.90
3246;DHT22;1635;48.000;10.582;2022-11-20T00:53:40;4.80;99.90
3246;DHT22;1635;48.000;10.582;2022-11-20T00:56:12;4.90;99.90
3246;DHT22;1635;48.000;10.582;2022-11-20T00:59:16;4.80;99.90
3246;DHT22;1635;48.000;10.582;2022-11-20T01:01:44;4.90;99.90
3246;DHT22;1635;48.000;10.582;2022-11-20T01:04:12;4.90;99.90
3246;DHT22;1635;48.000;10.582;2022-11-20T01:06:39;4.90;99.90
3246;DHT22;1635;48.000;10.582;2022-11-20T01:09:11;4.90;99.90
3246;DHT22;1635;48.000;10.582;2022-11-20T01:11:44;4.90;99.90
3246;DHT22;1635;48.000;10.582;2022-11-20T01:14:14;4.90;99.90
3246;DHT22;1635;48.000;10.582;2022-11-20T01:16:51;4.90;99.90
3246;DHT22;1635;48.000;10.582;2022-11-20T01:23:26;4.70;99.90
3246;DHT22;1635;48.000;10.582;2022-11-20T01:26:04;4.60;99.90
3246;DHT22;1635;48.000;10.582;2022-11-20T01:33:08;4.30;99.90
3246;DHT22;1635;48.000;10.582;2022-11-20T01:35:36;4.30;99.90
3246;DHT22;1635;48.000;10.582;2022-11-20T01:38:06;4.30;99.90
3246;DHT22;1635;48.000;10.582;2022-11-20T01:40:34;4.30;99.90
3246;DHT22;1635;48.000;10.582;2022-11-20T01:47:44;4.40;99.90
3246;DHT22;1635;48.000;10.582;2022-11-20T02:01:41;4.50;99.90
3246;DHT22;1635;48.000;10.582;2022-11-20T02:04:12;4.50;99.90
3246;DHT22;1635;48.000;10.582;2022-11-20T02:07:08;4.60;99.90
3246;DHT22;1635;48.000;10.582;2022-11-20T02:09:36;4.60;99.90
3246;DHT22;1635;48.000;10.582;2022-11-20T02:12:05;4.60;99.90
3246;DHT22;1635;48.000;10.582;2022-11-20T02:14:33;4.60;99.90
3246;DHT22;1635;48.000;10.582;2022-11-20T02:17:19;4.60;99.90
3246;DHT22;1635;48.000;10.582;2022-11-20T02:24:15;4.60;99.90
3246;DHT22;1635;48.000;10.582;2022-11-20T02:26:59;4.60;99.90
3246;DHT22;1635;48.000;10.582;2022-11-20T02:30:02;4.60;99.90
3246;DHT22;1635;48.000;10.582;2022-11-20T02:37:00;4.60;99.90
3246;DHT22;1635;48.000;10.582;2022-11-20T02:39:31;4.60;99.90
3246;DHT22;1635;48.000;10.582;2022-11-20T02:42:16;4.60;99.90
3246;DHT22;1635;48.000;10.582;2022-11-20T02:44:44;4.60;99.90
3246;DHT22;1635;48.000;10.582;2022-11-20T02:47:30;4.60;99.90
3246;DHT22;1635;48.000;10.582;2022-11-20T02:58:33;4.60;99.90
3246;DHT22;1635;48.000;10.582;2022-11-20T03:01:03;4.50;99.90
3246;DHT22;1635;48.000;10.582;2022-11-20T03:04:06;4.50;99.90
3246;DHT22;1635;48.000;10.582;2022-11-20T03:06:49;4.50;99.90
3246;DHT22;1635;48.000;10.582;2022-11-20T03:09:56;4.50;99.90
3246;DHT22;1635;48.000;10.582;2022-11-20T03:12:44;4.50;99.90
3246;DHT22;1635;48.000;10.582;2022-11-20T03:15:37;4.50;99.90
3246;DHT22;1635;48.000;10.582;2022-11-20T03:21:13;4.50;99.90
3246;DHT22;1635;48.000;10.582;2022-11-20T03:23:42;4.50;99.90
3246;DHT22;1635;48.000;10.582;2022-11-20T03:26:24;4.50;99.90
3246;DHT22;1635;48.000;10.582;2022-11-20T03:29:03;4.50;99.90
3246;DHT22;1635;48.000;10.582;2022-11-20T03:31:36;4.50;99.90
3246;DHT22;1635;48.000;10.582;2022-11-20T03:34:04;4.50;99.90
3246;DHT22;1635;48.000;10.582;2022-11-20T03:36:33;4.50;99.90
3246;DHT22;1635;48.000;10.582;2022-11-20T03:39:03;4.50;99.90
3246;DHT22;1635;48.000;10.582;2022-11-20T03:41:36;4.50;99.90
3246;DHT22;1635;48.000;10.582;2022-11-20T03:44:13;4.50;99.90
3246;DHT22;1635;48.000;10.582;2022-11-20T03:46:55;4.50;99.90
3246;DHT22;1635;48.000;10.582;2022-11-20T03:49:34;4.50;99.90
3246;DHT22;1635;48.000;10.582;2022-11-20T03:52:10;4.50;99.90
3246;DHT22;1635;48.000;10.582;2022-11-20T03:55:07;4.50;99.90
3246;DHT22;1635;48.000;10.582;2022-11-20T03:57:37;4.50;99.90
3246;DHT22;1635;48.000;10.582;2022-11-20T04:00:06;4.40;99.90
3246;DHT22;1635;48.000;10.582;2022-11-20T04:02:58;4.40;99.90
3246;DHT22;1635;48.000;10.582;2022-11-20T04:05:30;4.40;99.90
3246;DHT22;1635;48.000;10.582;2022-11-20T04:08:00;4.40;99.90
3246;DHT22;1635;48.000;10.582;2022-11-20T04:10:31;4.40;99.90
3246;DHT22;1635;48.000;10.582;2022-11-20T04:13:01;4.40;99.90
3246;DHT22;1635;48.000;10.582;2022-11-20T04:20:12;4.40;99.90
3246;DHT22;1635;48.000;10.582;2022-11-20T04:27:06;4.30;99.90
3246;DHT22;1635;48.000;10.582;2022-11-20T04:38:20;4.30;99.90
3246;DHT22;1635;48.000;10.582;2022-11-20T04:41:15;4.40;99.90
3246;DHT22;1635;48.000;10.582;2022-11-20T04:43:55;4.40;99.90
3246;DHT22;1635;48.000;10.582;2022-11-20T04:46:42;4.40;99.90
3246;DHT22;1635;48.000;10.582;2022-11-20T04:49:14;4.50;99.90
3246;DHT22;1635;48.000;10.582;2022-11-20T04:51:42;4.50;99.90
3246;DHT22;1635;48.000;10.582;2022-11-20T04:54:11;4.50;99.90
3246;DHT22;1635;48.000;10.582;2022-11-20T04:56:39;4.50;99.90
3246;DHT22;1635;48.000;10.582;2022-11-20T04:59:07;4.50;99.90
3246;DHT22;1635;48.000;10.582;2022-11-20T05:01:36;4.50;99.90
3246;DHT22;1635;48.000;10.582;2022-11-20T05:04:12;4.40;99.90
3246;DHT22;1635;48.000;10.582;2022-11-20T05:06:40;4.40;99.90
3246;DHT22;1635;48.000;10.582;2022-11-20T05:13:43;4.40;99.90
3246;DHT22;1635;48.000;10.582;2022-11-20T05:20:39;4.20;99.90
3246;DHT22;1635;48.000;10.582;2022-11-20T05:23:09;4.10;99.90
3246;DHT22;1635;48.000;10.582;2022-11-20T05:25:39;4.00;99.90
3246;DHT22;1635;48.000;10.582;2022-11-20T05:28:09;4.00;99.90
3246;DHT22;1635;48.000;10.582;2022-11-20T05:33:42;4.00;99.90
3246;DHT22;1635;48.000;10.582;2022-11-20T05:36:16;4.10;99.90
3246;DHT22;1635;48.000;10.582;2022-11-20T05:38:44;4.10;99.90
3246;DHT22;1635;48.000;10.582;2022-11-20T05:41:18;4.10;99.90
3246;DHT22;1635;48.000;10.582;2022-11-20T05:48:23;4.10;99.90
3246;DHT22;1635;48.000;10.582;2022-11-20T05:55:14;4.10;99.90
3246;DHT22;1635;48.000;10.582;2022-11-20T06:02:18;4.00;99.90
3246;DHT22;1635;48.000;10.582;2022-11-20T06:09:22;4.00;99.90
3246;DHT22;1635;48.000;10.582;2022-11-20T06:11:50;4.10;99.90
3246;DHT22;1635;48.000;10.582;2022-11-20T06:18:54;4.20;99.90
3246;DHT22;1635;48.000;10.582;2022-11-20T06:29:59;4.20;99.90
3246;DHT22;1635;48.000;10.582;2022-11-20T06:37:05;4.30;99.90
3246;DHT22;1635;48.000;10.582;2022-11-20T06:43:56;4.30;99.90
3246;DHT22;1635;48.000;10.582;2022-11-20T06:50:50;4.30;99.90
3246;DHT22;1635;48.000;10.582;2022-11-20T06:57:41;4.40;99.90
3246;DHT22;1635;48.000;10.582;2022-11-20T07:00:46;4.40;99.90
3246;DHT22;1635;48.000;10.582;2022-11-20T07:03:14;4.50;99.90
3246;DHT22;1635;48.000;10.582;2022-11-20T07:05:42;4.50;99.90
3246;DHT22;1635;48.000;10.582;2022-11-20T07:08:11;4.50;99.90
3246;DHT22;1635;48.000;10.582;2022-11-20T07:10:39;4.50;99.90
3246;DHT22;1635;48.000;10.582;2022-11-20T07:13:07;4.50;99.90
3246;DHT22;1635;48.000;10.582;2022-11-20T07:15:46;4.60;99.90
3246;DHT22;1635;48.000;10.582;2022-11-20T07:18:14;4.60;99.90
3246;DHT22;1635;48.000;10.582;2022-11-20T07:20:50;4.60;99.90
3246;DHT22;1635;48.000;10.582;2022-11-20T07:23:19;4.60;99.90
3246;DHT22;1635;48.000;10.582;2022-11-20T07:38:29;4.70;99.90
3246;DHT22;1635;48.000;10.582;2022-11-20T07:49:12;4.80;99.90
3246;DHT22;1635;48.000;10.582;2022-11-20T07:51:40;4.90;99.90
3246;DHT22;1635;48.000;10.582;2022-11-20T07:54:08;4.90;99.90
3246;DHT22;1635;48.000;10.582;2022-11-20T07:59:44;5.20;99.90
3246;DHT22;1635;48.000;10.582;2022-11-20T08:02:31;5.30;99.90
3246;DHT22;1635;48.000;10.582;2022-11-20T08:09:34;5.40;99.90
3246;DHT22;1635;48.000;10.582;2022-11-20T08:12:02;5.50;99.90
3246;DHT22;1635;48.000;10.582;2022-11-20T08:14:49;5.50;99.90
3246;DHT22;1635;48.000;10.582;2022-11-20T08:21:41;5.50;99.90
3246;DHT22;1635;48.000;10.582;2022-11-20T08:24:13;5.50;99.90
3246;DHT22;1635;48.000;10.582;2022-11-20T08:26:41;5.50;99.90
3246;DHT22;1635;48.000;10.582;2022-11-20T08:33:44;5.40;99.90
3246;DHT22;1635;48.000;10.582;2022-11-20T08:36:12;5.40;99.90
3246;DHT22;1635;48.000;10.582;2022-11-20T08:38:41;5.40;99.90
3246;DHT22;1635;48.000;10.582;2022-11-20T08:41:09;5.50;99.90
3246;DHT22;1635;48.000;10.582;2022-11-20T08:43:59;5.60;99.90
3246;DHT22;1635;48.000;10.582;2022-11-20T08:46:42;5.70;99.90
3246;DHT22;1635;48.000;10.582;2022-11-20T08:49:12;5.90;99.90
3246;DHT22;1635;48.000;10.582;2022-11-20T08:51:41;6.00;99.90
3246;DHT22;1635;48.000;10.582;2022-11-20T08:54:10;6.20;99.90
3246;DHT22;1635;48.000;10.582;2022-11-20T08:56:38;6.20;99.90
3246;DHT22;1635;48.000;10.582;2022-11-20T09:03:04;6.10;99.90
3246;DHT22;1635;48.000;10.582;2022-11-20T09:05:32;6.10;99.90
3246;DHT22;1635;48.000;10.582;2022-11-20T09:08:02;6.10;99.90
3246;DHT22;1635;48.000;10.582;2022-11-20T09:15:06;5.80;99.90
3246;DHT22;1635;48.000;10.582;2022-11-20T09:22:03;5.70;99.90
3246;DHT22;1635;48.000;10.582;2022-11-20T09:25:01;5.80;99.90
3246;DHT22;1635;48.000;10.582;2022-11-20T09:30:40;5.90;99.90
3246;DHT22;1635;48.000;10.582;2022-11-20T09:33:32;6.00;99.90
3246;DHT22;1635;48.000;10.582;2022-11-20T09:36:02;6.10;99.90
3246;DHT22;1635;48.000;10.582;2022-11-20T09:38:31;6.20;99.90
3246;DHT22;1635;48.000;10.582;2022-11-20T09:41:25;6.20;99.90
3246;DHT22;1635;48.000;10.582;2022-11-20T09:47:07;6.20;99.90
3246;DHT22;1635;48.000;10.582;2022-11-20T09:55:21;6.80;99.90
3246;DHT22;1635;48.000;10.582;2022-11-20T09:57:51;6.90;99.90
3246;DHT22;1635;48.000;10.582;2022-11-20T10:00:22;7.00;99.90
3246;DHT22;1635;48.000;10.582;2022-11-20T10:03:22;6.90;99.90
3246;DHT22;1635;48.000;10.582;2022-11-20T10:05:54;7.00;99.90
3246;DHT22;1635;48.000;10.582;2022-11-20T10:08:36;7.10;99.90
3246;DHT22;1635;48.000;10.582;2022-11-20T10:26:20;6.90;99.90
3246;DHT22;1635;48.000;10.582;2022-11-20T10:32:04;6.90;99.90
3246;DHT22;1635;48.000;10.582;2022-11-20T10:35:07;6.90;99.90
3246;DHT22;1635;48.000;10.582;2022-11-20T10:37:44;7.10;99.90
3246;DHT22;1635;48.000;10.582;2022-11-20T10:43:36;7.20;99.90
3246;DHT22;1635;48.000;10.582;2022-11-20T10:46:00;7.30;99.90
3246;DHT22;1635;48.000;10.582;2022-11-20T10:48:32;7.10;99.90
3246;DHT22;1635;48.000;10.582;2022-11-20T10:56:46;6.90;99.90
3246;DHT22;1635;48.000;10.582;2022-11-20T11:02:24;7.00;99.90
3246;DHT22;1635;48.000;10.582;2022-11-20T11:04:53;7.10;99.90
3246;DHT22;1635;48.000;10.582;2022-11-20T11:07:31;7.30;99.90
3246;DHT22;1635;48.000;10.582;2022-11-20T11:10:05;7.20;99.90
3246;DHT22;1635;48.000;10.582;2022-11-20T11:12:43;7.30;99.90
3246;DHT22;1635;48.000;10.582;2022-11-20T11:15:26;7.30;99.90
3246;DHT22;1635;48.000;10.582;2022-11-20T11:17:55;7.20;99.90
3246;DHT22;1635;48.000;10.582;2022-11-20T11:20:28;6.90;99.90
3246;DHT22;1635;48.000;10.582;2022-11-20T11:22:57;6.80;99.90
3246;DHT22;1635;48.000;10.582;2022-11-20T11:25:55;6.50;99.90
3246;DHT22;1635;48.000;10.582;2022-11-20T11:28:24;6.10;99.90
3246;DHT22;1635;48.000;10.582;2022-11-20T11:30:56;6.00;99.90
3246;DHT22;1635;48.000;10.582;2022-11-20T11:33:30;5.90;99.90
3246;DHT22;1635;48.000;10.582;2022-11-20T11:36:17;5.80;99.90
3246;DHT22;1635;48.000;10.582;2022-11-20T11:38:51;5.70;99.90
3246;DHT22;1635;48.000;10.582;2022-11-20T11:41:34;5.50;99.90
3246;DHT22;1635;48.000;10.582;2022-11-20T11:44:19;5.40;99.90
3246;DHT22;1635;48.000;10.582;2022-11-20T11:47:25;5.20;99.90
3246;DHT22;1635;48.000;10.582;2022-11-20T11:54:25;5.00;99.90
3246;DHT22;1635;48.000;10.582;2022-11-20T11:56:54;5.00;99.90
3246;DHT22;1635;48.000;10.582;2022-11-20T11:59:27;5.00;99.90
3246;DHT22;1635;48.000;10.582;2022-11-20T12:02:01;5.00;99.90
3246;DHT22;1635;48.000;10.582;2022-11-20T12:08:59;5.00;99.90
3246;DHT22;1635;48.000;10.582;2022-11-20T12:16:04;5.00;99.90
3246;DHT22;1635;48.000;10.582;2022-11-20T12:25:14;5.10;99.90
3246;DHT22;1635;48.000;10.582;2022-11-20T12:30:54;5.20;99.90
3246;DHT22;1635;48.000;10.582;2022-11-20T12:51:27;5.30;99.90
3246;DHT22;1635;48.000;10.582;2022-11-20T12:54:26;5.40;99.90
3246;DHT22;1635;48.000;10.582;2022-11-20T13:18:41;4.70;99.90
3246;DHT22;1635;48.000;10.582;2022-11-20T13:21:20;4.40;99.90
3246;DHT22;1635;48.000;10.582;2022-11-20T13:23:48;4.20;99.90
3246;DHT22;1635;48.000;10.582;2022-11-20T13:26:22;4.10;99.90
3246;DHT22;1635;48.000;10.582;2022-11-20T13:29:11;4.00;99.90
3246;DHT22;1635;48.000;10.582;2022-11-20T13:31:45;4.00;99.90
3246;DHT22;1635;48.000;10.582;2022-11-20T13:34:23;4.00;99.90
3246;DHT22;1635;48.000;10.582;2022-11-20T13:36:54;4.00;99.90
3246;DHT22;1635;48.000;10.582;2022-11-20T13:39:28;4.10;99.90
3246;DHT22;1635;48.000;10.582;2022-11-20T13:42:01;4.30;99.90
3246;DHT22;1635;48.000;10.582;2022-11-20T13:44:43;4.40;99.90
3246;DHT22;1635;48.000;10.582;2022-11-20T13:47:21;4.50;99.90
3246;DHT22;1635;48.000;10.582;2022-11-20T13:49:55;4.50;99.90
3246;DHT22;1635;48.000;10.582;2022-11-20T13:55:47;4.60;99.90
3246;DHT22;1635;48.000;10.582;2022-11-20T14:01:25;4.60;99.90
3246;DHT22;1635;48.000;10.582;2022-11-20T14:03:54;4.60;99.90
3246;DHT22;1635;48.000;10.582;2022-11-20T14:06:43;4.60;99.90
3246;DHT22;1635;48.000;10.582;2022-11-20T14:09:13;4.60;99.90
3246;DHT22;1635;48.000;10.582;2022-11-20T14:11:47;4.60;99.90
3246;DHT22;1635;48.000;10.582;2022-11-20T14:14:18;4.70;99.90
3246;DHT22;1635;48.000;10.582;2022-11-20T14:16:48;4.70;99.90
3246;DHT22;1635;48.000;10.582;2022-11-20T14:19:25;4.70;99.90
3246;DHT22;1635;48.000;10.582;2022-11-20T14:27:44;4.80;99.90
3246;DHT22;1635;48.000;10.582;2022-11-20T14:30:22;4.80;99.90
3246;DHT22;1635;48.000;10.582;2022-11-20T14:32:55;4.90;99.90
3246;DHT22;1635;48.000;10.582;2022-11-20T14:35:29;4.90;99.90
3246;DHT22;1635;48.000;10.582;2022-11-20T14:37:57;4.90;99.90
3246;DHT22;1635;48.000;10.582;2022-11-20T14:40:31;5.00;99.90
3246;DHT22;1635;48.000;10.582;2022-11-20T14:43:15;4.90;99.90
3246;DHT22;1635;48.000;10.582;2022-11-20T14:45:46;4.80;99.90
3246;DHT22;1635;48.000;10.582;2022-11-20T14:48:39;4.70;99.90
3246;DHT22;1635;48.000;10.582;2022-11-20T14:51:23;4.60;99.90
3246;DHT22;1635;48.000;10.582;2022-11-20T14:53:53;4.50;99.90
3246;DHT22;1635;48.000;10.582;2022-11-20T14:56:24;4.50;99.90
3246;DHT22;1635;48.000;10.582;2022-11-20T14:58:58;4.60;99.90
3246;DHT22;1635;48.000;10.582;2022-11-20T15:01:29;4.60;99.90
3246;DHT22;1635;48.000;10.582;2022-11-20T15:04:13;4.70;99.90
3246;DHT22;1635;48.000;10.582;2022-11-20T15:06:51;4.70;99.90
3246;DHT22;1635;48.000;10.582;2022-11-20T15:09:22;4.70;99.90
3246;DHT22;1635;48.000;10.582;2022-11-20T15:11:55;4.60;99.90
3246;DHT22;1635;48.000;10.582;2022-11-20T15:14:26;4.50;99.90
3246;DHT22;1635;48.000;10.582;2022-11-20T15:16:54;4.50;99.90
3246;DHT22;1635;48.000;10.582;2022-11-20T15:19:26;4.50;99.90
3246;DHT22;1635;48.000;10.582;2022-11-20T15:21:53;4.40;99.90
3246;DHT22;1635;48.000;10.582;2022-11-20T15:24:21;4.30;99.90
3246;DHT22;1635;48.000;10.582;2022-11-20T15:26:50;4.20;99.90
3246;DHT22;1635;48.000;10.582;2022-11-20T15:29:18;4.20;99.90
3246;DHT22;1635;48.000;10.582;2022-11-20T15:31:46;4.10;99.90
3246;DHT22;1635;48.000;10.582;2022-11-20T15:34:15;4.00;99.90
3246;DHT22;1635;48.000;10.582;2022-11-20T15:36:43;4.00;99.90
3246;DHT22;1635;48.000;10.582;2022-11-20T15:39:11;3.90;99.90
3246;DHT22;1635;48.000;10.582;2022-11-20T15:41:40;3.90;99.90
3246;DHT22;1635;48.000;10.582;2022-11-20T15:44:07;3.80;99.90
3246;DHT22;1635;48.000;10.582;2022-11-20T15:46:37;3.80;99.90
3246;DHT22;1635;48.000;10.582;2022-11-20T15:49:17;3.70;99.90
3246;DHT22;1635;48.000;10.582;2022-11-20T15:51:48;3.80;99.90
3246;DHT22;1635;48.000;10.582;2022-11-20T15:54:19;3.70;99.90
3246;DHT22;1635;48.000;10.582;2022-11-20T15:56:50;3.70;99.90
3246;DHT22;1635;48.000;10.582;2022-11-20T15:59:20;3.70;99.90
3246;DHT22;1635;48.000;10.582;2022-11-20T16:01:49;3.70;99.90
3246;DHT22;1635;48.000;10.582;2022-11-20T16:04:17;3.70;99.90
3246;DHT22;1635;48.000;10.582;2022-11-20T16:06:46;3.60;99.90
3246;DHT22;1635;48.000;10.582;2022-11-20T16:09:18;3.50;99.90
3246;DHT22;1635;48.000;10.582;2022-11-20T16:11:46;3.50;99.90
3246;DHT22;1635;48.000;10.582;2022-11-20T16:14:15;3.40;99.90
3246;DHT22;1635;48.000;10.582;2022-11-20T16:17:00;3.40;99.90
3246;DHT22;1635;48.000;10.582;2022-11-20T16:19:33;3.40;99.90
3246;DHT22;1635;48.000;10.582;2022-11-20T16:22:03;3.30;99.90
3246;DHT22;1635;48.000;10.582;2022-11-20T16:24:31;3.30;99.90
3246;DHT22;1635;48.000;10.582;2022-11-20T16:27:00;3.30;99.90
3246;DHT22;1635;48.000;10.582;2022-11-20T16:29:28;3.20;99.90
3246;DHT22;1635;48.000;10.582;2022-11-20T16:31:56;3.10;99.90
3246;DHT22;1635;48.000;10.582;2022-11-20T16:34:24;3.10;99.90
3246;DHT22;1635;48.000;10.582;2022-11-20T16:36:53;3.00;99.90
3246;DHT22;1635;48.000;10.582;2022-11-20T16:39:21;2.90;99.90
3246;DHT22;1635;48.000;10.582;2022-11-20T16:41:51;2.80;99.90
3246;DHT22;1635;48.000;10.582;2022-11-20T16:44:19;2.80;99.90
3246;DHT22;1635;48.000;10.582;2022-11-20T16:46:47;2.80;99.90
3246;DHT22;1635;48.000;10.582;2022-11-20T16:49:14;2.70;99.90
3246;DHT22;1635;48.000;10.582;2022-11-20T16:51:42;2.60;99.90
3246;DHT22;1635;48.000;10.582;2022-11-20T16:54:10;2.60;99.90
3246;DHT22;1635;48.000;10.582;2022-11-20T16:56:46;2.60;99.90
3246;DHT22;1635;48.000;10.582;2022-11-20T16:59:14;2.50;99.90
3246;DHT22;1635;48.000;10.582;2022-11-20T17:01:42;2.50;99.90
3246;DHT22;1635;48.000;10.582;2022-11-20T17:04:10;2.50;99.90
3246;DHT22;1635;48.000;10.582;2022-11-20T17:06:41;2.50;99.90
3246;DHT22;1635;48.000;10.582;2022-11-20T17:09:10;2.50;99.90
3246;DHT22;1635;48.000;10.582;2022-11-20T17:11:39;2.50;99.90
3246;DHT22;1635;48.000;10.582;2022-11-20T17:14:09;2.40;99.90
3246;DHT22;1635;48.000;10.582;2022-11-20T17:16:36;2.40;99.90
3246;DHT22;1635;48.000;10.582;2022-11-20T17:19:04;2.40;99.90
3246;DHT22;1635;48.000;10.582;2022-11-20T17:21:34;2.40;99.90
3246;DHT22;1635;48.000;10.582;2022-11-20T17:24:11;2.30;99.90
3246;DHT22;1635;48.000;10.582;2022-11-20T17:26:40;2.30;99.90
3246;DHT22;1635;48.000;10.582;2022-11-20T17:29:13;2.30;99.90
3246;DHT22;1635;48.000;10.582;2022-11-20T17:31:41;2.30;99.90
3246;DHT22;1635;48.000;10.582;2022-11-20T17:34:13;2.30;99.90
3246;DHT22;1635;48.000;10.582;2022-11-20T17:36:41;2.40;99.90
3246;DHT22;1635;48.000;10.582;2022-11-20T17:39:13;2.40;99.90
3246;DHT22;1635;48.000;10.582;2022-11-20T17:41:41;2.40;99.90
3246;DHT22;1635;48.000;10.582;2022-11-20T17:44:11;2.30;99.90
3246;DHT22;1635;48.000;10.582;2022-11-20T17:46:40;2.30;99.90
3246;DHT22;1635;48.000;10.582;2022-11-20T17:49:08;2.30;99.90
3246;DHT22;1635;48.000;10.582;2022-11-20T17:51:36;2.30;99.90
3246;DHT22;1635;48.000;10.582;2022-11-20T17:54:05;2.30;99.90
3246;DHT22;1635;48.000;10.582;2022-11-20T17:56:36;2.40;99.90
3246;DHT22;1635;48.000;10.582;2022-11-20T17:59:26;2.40;99.90
3246;DHT22;1635;48.000;10.582;2022-11-20T18:01:54;2.40;99.90
3246;DHT22;1635;48.000;10.582;2022-11-20T18:04:29;2.40;99.90
3246;DHT22;1635;48.000;10.582;2022-11-20T18:06:57;2.40;99.90
3246;DHT22;1635;48.000;10.582;2022-11-20T18:15:46;2.20;99.90
3246;DHT22;1635;48.000;10.582;2022-11-20T18:18:14;2.10;99.90
3246;DHT22;1635;48.000;10.582;2022-11-20T18:20:42;2.10;99.90
3246;DHT22;1635;48.000;10.582;2022-11-20T18:23:09;2.10;99.90
3246;DHT22;1635;48.000;10.582;2022-11-20T18:25:38;2.00;99.90
3246;DHT22;1635;48.000;10.582;2022-11-20T18:28:06;2.00;99.90
3246;DHT22;1635;48.000;10.582;2022-11-20T18:30:35;2.00;99.90
3246;DHT22;1635;48.000;10.582;2022-11-20T18:33:04;2.00;99.90
3246;DHT22;1635;48.000;10.582;2022-11-20T18:35:31;2.00;99.90
3246;DHT22;1635;48.000;10.582;2022-11-20T18:37:59;2.00;99.90
3246;DHT22;1635;48.000;10.582;2022-11-20T18:40:29;2.10;99.90
3246;DHT22;1635;48.000;10.582;2022-11-20T18:42:57;2.20;99.90
3246;DHT22;1635;48.000;10.582;2022-11-20T18:45:44;2.30;99.90
3246;DHT22;1635;48.000;10.582;2022-11-20T18:48:12;2.30;99.90
3246;DHT22;1635;48.000;10.582;2022-11-20T18:50:40;2.30;99.90
3246;DHT22;1635;48.000;10.582;2022-11-20T18:53:08;2.20;99.90
3246;DHT22;1635;48.000;10.582;2022-11-20T18:55:36;2.30;99.90
3246;DHT22;1635;48.000;10.582;2022-11-20T18:58:04;2.30;99.90
3246;DHT22;1635;48.000;10.582;2022-11-20T19:00:32;2.40;99.90
3246;DHT22;1635;48.000;10.582;2022-11-20T19:03:00;2.40;99.90
3246;DHT22;1635;48.000;10.582;2022-11-20T19:05:30;2.50;99.90
3246;DHT22;1635;48.000;10.582;2022-11-20T19:07:58;2.40;99.90
3246;DHT22;1635;48.000;10.582;2022-11-20T19:10:26;2.40;99.90
3246;DHT22;1635;48.000;10.582;2022-11-20T19:12:54;2.40;99.90
3246;DHT22;1635;48.000;10.582;2022-11-20T19:15:22;2.40;99.90
3246;DHT22;1635;48.000;10.582;2022-11-20T19:17:49;2.40;99.90
3246;DHT22;1635;48.000;10.582;2022-11-20T19:20:17;2.50;99.90
3246;DHT22;1635;48.000;10.582;2022-11-20T19:22:51;2.50;99.90
3246;DHT22;1635;48.000;10.582;2022-11-20T19:25:20;2.50;99.90
3246;DHT22;1635;48.000;10.582;2022-11-20T19:27:48;2.60;99.90
3246;DHT22;1635;48.000;10.582;2022-11-20T19:30:16;2.60;99.90
3246;DHT22;1635;48.000;10.582;2022-11-20T19:32:43;2.70;99.90
3246;DHT22;1635;48.000;10.582;2022-11-20T19:35:11;2.70;99.90
3246;DHT22;1635;48.000;10.582;2022-11-20T19:37:39;2.70;99.90
3246;DHT22;1635;48.000;10.582;2022-11-20T19:40:07;2.60;99.90
3246;DHT22;1635;48.000;10.582;2022-11-20T19:43:07;2.60;99.90
3246;DHT22;1635;48.000;10.582;2022-11-20T19:45:37;2.40;99.90
3246;DHT22;1635;48.000;10.582;2022-11-20T19:48:06;2.30;99.90
3246;DHT22;1635;48.000;10.582;2022-11-20T19:50:35;2.20;99.90
3246;DHT22;1635;48.000;10.582;2022-11-20T19:53:04;2.10;99.90
3246;DHT22;1635;48.000;10.582;2022-11-20T19:55:36;2.10;99.90
3246;DHT22;1635;48.000;10.582;2022-11-20T19:58:04;2.00;99.90
3246;DHT22;1635;48.000;10.582;2022-11-20T20:00:32;2.00;99.90
3246;DHT22;1635;48.000;10.582;2022-11-20T20:03:05;2.10;99.90
3246;DHT22;1635;48.000;10.582;2022-11-20T20:05:35;2.10;99.90
3246;DHT22;1635;48.000;10.582;2022-11-20T20:08:04;2.30;99.90
3246;DHT22;1635;48.000;10.582;2022-11-20T20:10:31;2.40;99.90
3246;DHT22;1635;48.000;10.582;2022-11-20T20:12:59;2.60;99.90
3246;DHT22;1635;48.000;10.582;2022-11-20T20:15:28;2.90;99.90
3246;DHT22;1635;48.000;10.582;2022-11-20T20:17:56;3.10;99.90
3246;DHT22;1635;48.000;10.582;2022-11-20T20:20:24;3.30;99.90
3246;DHT22;1635;48.000;10.582;2022-11-20T20:22:55;3.50;99.90
3246;DHT22;1635;48.000;10.582;2022-11-20T20:31:44;4.00;99.90
3246;DHT22;1635;48.000;10.582;2022-11-20T20:34:12;4.20;99.90
3246;DHT22;1635;48.000;10.582;2022-11-20T20:36:40;4.40;99.90
3246;DHT22;1635;48.000;10.582;2022-11-20T20:39:10;4.40;99.90
3246;DHT22;1635;48.000;10.582;2022-11-20T20:41:39;4.50;99.90
3246;DHT22;1635;48.000;10.582;2022-11-20T20:44:07;4.60;99.90
3246;DHT22;1635;48.000;10.582;2022-11-20T20:46:53;4.50;99.90
3246;DHT22;1635;48.000;10.582;2022-11-20T20:49:21;4.30;99.90
3246;DHT22;1635;48.000;10.582;2022-11-20T20:51:49;4.20;99.90
3246;DHT22;1635;48.000;10.582;2022-11-20T20:54:17;4.10;99.90
3246;DHT22;1635;48.000;10.582;2022-11-20T20:56:45;4.10;99.90
3246;DHT22;1635;48.000;10.582;2022-11-20T20:59:13;4.00;99.90
3246;DHT22;1635;48.000;10.582;2022-11-20T21:01:41;3.90;99.90
3246;DHT22;1635;48.000;10.582;2022-11-20T21:04:09;3.90;99.90
3246;DHT22;1635;48.000;10.582;2022-11-20T21:06:38;3.80;99.90
3246;DHT22;1635;48.000;10.582;2022-11-20T21:09:05;3.80;99.90
3246;DHT22;1635;48.000;10.582;2022-11-20T21:11:33;3.80;99.90
3246;DHT22;1635;48.000;10.582;2022-11-20T21:14:03;3.70;99.90
3246;DHT22;1635;48.000;10.582;2022-11-20T21:16:32;3.80;99.90
3246;DHT22;1635;48.000;10.582;2022-11-20T21:19:07;3.70;99.90
3246;DHT22;1635;48.000;10.582;2022-11-20T21:21:35;3.70;99.90
3246;DHT22;1635;48.000;10.582;2022-11-20T21:24:21;3.70;99.90
3246;DHT22;1635;48.000;10.582;2022-11-20T21:26:50;3.70;99.90
3246;DHT22;1635;48.000;10.582;2022-11-20T21:29:19;3.70;99.90
3246;DHT22;1635;48.000;10.582;2022-11-20T21:31:47;3.70;99.90
3246;DHT22;1635;48.000;10.582;2022-11-20T21:34:16;3.70;99.90
3246;DHT22;1635;48.000;10.582;2022-11-20T21:36:44;3.60;99.90
3246;DHT22;1635;48.000;10.582;2022-11-20T21:39:13;3.60;99.90
3246;DHT22;1635;48.000;10.582;2022-11-20T21:41:40;3.50;99.90
3246;DHT22;1635;48.000;10.582;2022-11-20T21:44:13;3.40;99.90
3246;DHT22;1635;48.000;10.582;2022-11-20T21:46:58;3.30;99.90